Pagrindinis puslapis
METAR-TAF:

METAR-TAF

Oro uostai :

Kefalonija, Graikija

platuma: 38-07N, ilguma: 020-30E, Aukštis: 19 m

Dabartinis oras

Ataskaita buvo paskelbta 9 valandos ir 6 minutes, ne 14:50 UTC
Vėjas 12 kt iš Šiaurės/Šiaurės Rytų
Temperatūra 17°C
Drėgmė 32%
Slėgis 1022 hPa
Matomumas 10 km arba daugiau
Išsisklaidę debesys ne aukštis 7000 ft

METAR: LGKF 071450Z 02012KT 9999 SCT070 17/M00 Q1022

Laikas: 02:56 (23:56 UTC)

Prognozė

Ataskaita buvo paskelbta 56 minutes, ne 23:00 UTC
Prognozė galioja nuo 08 metu 00 UTC su 08 metu 09 UTC
Vėjas 15 kt iš Šiaurės/Šiaurės Rytų
Matomumas 10 km arba daugiau
Mažai debesys ne aukštis 2000 ft

TAF: LGKF 072300Z 0800/0809 02015KT 9999 FEW020

Orai ataskaitas ir orų prognozės (METAR, TAF).

turimą stotys yra geltonos ir raudonos taškus žemėlapyje.

Perkelti pele per norėdami pamatyti stoties vardą.

Tada spustelėkite, norėdami matyti oro stebėjimo ir prognozės.

Norėdami pakeisti žemėlapį: spustelėkite ant žalios mygtukų su juodo kryžiaus žemyn,; žalią mygtuką su brūkšneliu, jei norite nutolinti; arba žalių rodyklių gretimoms žemėlapius.


METAR-TAF: